Ahsahka, Idaho
Current Conditions -  °F | °C
As of 12:12 AM on Thursday 29 Jan 2015 (Local Time) from KLWS Reporting Station
Moderate Fog Moderate Fog  
Wind Chill: 36°   Ceiling: 200
Heat Index: 36°   Visibility: 0.25mi
Dew Point: 35°   Wind: 3mph
Humidity: 97%   Direction: 250°WSW
Pressure: 30.43"   Gusts: NA
Location:  46.51°N, 116.35°W
Report Text: KLWS 290812Z AUTO 25003KT 1/4SM FG VV002 02/02 A3043 RMK AO2 T00220017
Loading
Personal Weather Stations






























Interactive Weather Map New forecast layout! Learn more

10-Day Weather Forecast

Advertisements
Track Severe Weather on mobile